Wetterdaten: Woche 31.10.11 - 06.11.11 (KW44)
Datum Zeit Temp. Innen Temp. Aussen UV X Diff Temp. Feuchte Inne Feuchte Auss Sonnenschein Luftdruck Regen ab 0,1 Wind Sonnenschein T Regendauer Windben
31.10.2011 00:00 19,6 C 8,9 C 0,0 UV-I 0,0 C 57 % 90 % 0 % 1021,7 hPa 0,0 l/m 0,0 km/h (0 Bft) 0,00 h 0,00 h 0,0 km/h (0 Bft)
31.10.2011 01:00 19,3 C 8,6 C 0,0 UV-I 0,0 C 57 % 91 % 0 % 1021,4 hPa 0,0 l/m 0,0 km/h (0 Bft) 0,00 h 0,00 h 0,0 km/h (0 Bft)
31.10.2011 02:00 19,1 C 8,3 C 0,0 UV-I 0,0 C 57 % 91 % 0 % 1021,1 hPa 0,0 l/m 0,0 km/h (0 Bft) 0,00 h 0,00 h 0,0 km/h (0 Bft)
31.10.2011 03:00 18,8 C 8,1 C 0,0 UV-I 0,0 C 58 % 91 % 0 % 1020,7 hPa 0,0 l/m 0,0 km/h (0 Bft) 0,00 h 0,00 h 0,0 km/h (0 Bft)
31.10.2011 04:00 18,7 C 7,3 C 0,0 UV-I 0,0 C 57 % 91 % 0 % 1020,3 hPa 0,0 l/m 0,0 km/h (0 Bft) 0,00 h 0,00 h 0,0 km/h (0 Bft)
31.10.2011 05:00 18,5 C 6,9 C 0,0 UV-I 0,0 C 57 % 92 % 0 % 1020,1 hPa 0,0 l/m 0,0 km/h (0 Bft) 0,00 h 0,00 h 0,0 km/h (0 Bft)
31.10.2011 06:00 18,4 C 6,3 C 0,0 UV-I 0,0 C 57 % 92 % 0 % 1019,9 hPa 0,0 l/m 0,1 km/h (0 Bft) 0,00 h 0,00 h 0,1 km/h (0 Bft)
31.10.2011 07:00 18,2 C 7,0 C 0,0 UV-I 0,0 C 57 % 93 % 0 % 1019,9 hPa 0,0 l/m 1,6 km/h (1 Bft) 0,00 h 0,00 h 2,3 km/h (1 Bft)
31.10.2011 08:00 18,2 C 7,2 C 0,0 UV-I 0,1 C 57 % 93 % 2 % 1020,2 hPa 0,0 l/m 0,7 km/h (0 Bft) 0,00 h 0,00 h 1,3 km/h (1 Bft)
31.10.2011 09:00 18,3 C 8,8 C 0,1 UV-I 4,7 C 57 % 94 % 96 % 1020,2 hPa 0,1 l/m 3,7 km/h (1 Bft) 0,97 h 0,00 h 4,7 km/h (1 Bft)
31.10.2011 10:00 18,5 C 11,3 C 0,3 UV-I 6,2 C 57 % 93 % 100 % 1019,9 hPa 0,0 l/m 4,3 km/h (1 Bft) 1,00 h 0,00 h 4,2 km/h (1 Bft)
31.10.2011 11:00 18,7 C 13,9 C 0,9 UV-I 6,6 C 58 % 89 % 100 % 1019,5 hPa 0,0 l/m 3,7 km/h (1 Bft) 1,00 h 0,00 h 4,7 km/h (1 Bft)
31.10.2011 12:00 19,3 C 15,7 C 1,9 UV-I 6,4 C 58 % 83 % 100 % 1019,1 hPa 0,0 l/m 2,9 km/h (1 Bft) 1,00 h 0,00 h 4,0 km/h (1 Bft)
31.10.2011 13:00 20,9 C 15,9 C 1,7 UV-I 4,5 C 55 % 78 % 100 % 1019,3 hPa 0,0 l/m 6,3 km/h (2 Bft) 1,00 h 0,00 h 7,7 km/h (2 Bft)
31.10.2011 14:00 21,7 C 15,7 C 0,9 UV-I 4,0 C 53 % 81 % 98 % 1018,8 hPa 0,0 l/m 3,3 km/h (1 Bft) 1,00 h 0,00 h 3,4 km/h (1 Bft)
31.10.2011 15:00 22,3 C 16,5 C 0,3 UV-I 3,4 C 52 % 80 % 92 % 1018,1 hPa 0,0 l/m 1,3 km/h (1 Bft) 1,00 h 0,00 h 1,3 km/h (1 Bft)
31.10.2011 16:00 22,1 C 15,5 C 0,0 UV-I 0,2 C 52 % 82 % 7 % 1017,3 hPa 0,0 l/m 0,1 km/h (0 Bft) 0,07 h 0,00 h 0,3 km/h (0 Bft)
31.10.2011 17:00 21,4 C 14,1 C 0,0 UV-I 0,0 C 54 % 83 % 0 % 1016,6 hPa 0,0 l/m 0,0 km/h (0 Bft) 0,00 h 0,00 h 0,0 km/h (0 Bft)
31.10.2011 18:00 20,7 C 12,9 C 0,0 UV-I 0,0 C 55 % 87 % 0 % 1016,2 hPa 0,0 l/m 0,1 km/h (0 Bft) 0,00 h 0,00 h 0,4 km/h (0 Bft)
31.10.2011 19:00 20,3 C 13,5 C 0,0 UV-I 0,0 C 57 % 89 % 0 % 1016,1 hPa 0,0 l/m 2,8 km/h (1 Bft) 0,00 h 0,00 h 3,5 km/h (1 Bft)
31.10.2011 20:00 20,1 C 13,2 C 0,0 UV-I 0,0 C 57 % 88 % 0 % 1015,9 hPa 0,0 l/m 3,3 km/h (1 Bft) 0,00 h 0,00 h 4,6 km/h (1 Bft)
31.10.2011 21:00 20,0 C 12,9 C 0,0 UV-I 0,0 C 58 % 88 % 0 % 1015,8 hPa 0,0 l/m 4,3 km/h (1 Bft) 0,00 h 0,00 h 5,4 km/h (1 Bft)
31.10.2011 22:00 19,8 C 12,2 C 0,0 UV-I 0,0 C 58 % 88 % 0 % 1015,6 hPa 0,0 l/m 1,8 km/h (1 Bft) 0,00 h 0,00 h 3,0 km/h (1 Bft)
31.10.2011 23:00 19,7 C 11,8 C 0,0 UV-I 0,0 C 58 % 89 % 0 % 1015,4 hPa 0,0 l/m 3,9 km/h (1 Bft) 0,00 h 0,00 h 5,1 km/h (1 Bft)
01.11.2011 00:00 19,5 C 11,5 C 0,0 UV-I 0,0 C 58 % 90 % 0 % 1014,8 hPa 0,0 l/m 2,9 km/h (1 Bft) 0,00 h 0,00 h 4,4 km/h (1 Bft)
01.11.2011 01:00 19,2 C 10,7 C 0,0 UV-I 0,0 C 59 % 90 % 0 % 1014,4 hPa 0,0 l/m 0,6 km/h (0 Bft) 0,00 h 0,00 h 0,7 km/h (0 Bft)
01.11.2011 02:00 19,0 C 10,2 C 0,0 UV-I 0,0 C 59 % 91 % 0 % 1014,0 hPa 0,0 l/m 2,9 km/h (1 Bft) 0,00 h 0,00 h 4,0 km/h (1 Bft)
01.11.2011 03:00 18,9 C 10,1 C 0,0 UV-I 0,0 C 59 % 91 % 0 % 1013,3 hPa 0,0 l/m 5,2 km/h (1 Bft) 0,00 h 0,00 h 5,8 km/h (2 Bft)
01.11.2011 04:00 18,7 C 9,9 C 0,0 UV-I 0,0 C 59 % 91 % 0 % 1012,9 hPa 0,0 l/m 5,7 km/h (1 Bft) 0,00 h 0,00 h 7,5 km/h (2 Bft)
01.11.2011 05:00 18,6 C 9,6 C 0,0 UV-I 0,0 C 58 % 91 % 0 % 1012,8 hPa 0,0 l/m 5,1 km/h (1 Bft) 0,00 h 0,00 h 6,1 km/h (2 Bft)
01.11.2011 06:00 18,5 C 9,3 C 0,0 UV-I 0,0 C 58 % 92 % 0 % 1012,6 hPa 0,0 l/m 5,3 km/h (1 Bft) 0,00 h 0,00 h 5,8 km/h (2 Bft)
01.11.2011 07:00 18,4 C 9,2 C 0,0 UV-I 0,0 C 58 % 92 % 0 % 1012,8 hPa 0,0 l/m 5,9 km/h (2 Bft) 0,00 h 0,00 h 6,2 km/h (2 Bft)
01.11.2011 08:00 18,4 C 9,4 C 0,0 UV-I 0,0 C 58 % 92 % 1 % 1013,0 hPa 0,0 l/m 4,8 km/h (1 Bft) 0,00 h 0,00 h 5,4 km/h (1 Bft)
01.11.2011 09:00 18,4 C 11,0 C 0,1 UV-I 3,5 C 58 % 92 % 88 % 1013,0 hPa 0,0 l/m 7,6 km/h (2 Bft) 0,93 h 0,00 h 9,7 km/h (2 Bft)
01.11.2011 10:00 18,7 C 13,1 C 0,5 UV-I 4,1 C 58 % 88 % 96 % 1013,0 hPa 0,0 l/m 9,5 km/h (2 Bft) 0,90 h 0,00 h 10,6 km/h (2 Bft)
01.11.2011 11:00 19,0 C 14,9 C 0,9 UV-I 4,1 C 58 % 84 % 100 % 1012,9 hPa 0,0 l/m 8,5 km/h (2 Bft) 1,00 h 0,00 h 9,9 km/h (2 Bft)
01.11.2011 12:00 19,5 C 16,9 C 1,6 UV-I 4,5 C 58 % 78 % 100 % 1012,5 hPa 0,0 l/m 7,2 km/h (2 Bft) 1,00 h 0,00 h 7,5 km/h (2 Bft)
01.11.2011 13:00 20,9 C 18,4 C 1,6 UV-I 4,1 C 56 % 70 % 100 % 1013,2 hPa 0,0 l/m 8,5 km/h (2 Bft) 1,00 h 0,00 h 10,1 km/h (2 Bft)
01.11.2011 14:00 22,0 C 18,6 C 0,9 UV-I 2,9 C 53 % 67 % 79 % 1013,4 hPa 0,0 l/m 9,2 km/h (2 Bft) 0,70 h 0,00 h 10,4 km/h (2 Bft)
01.11.2011 15:00 22,0 C 16,5 C 0,2 UV-I 0,2 C 52 % 73 % 5 % 1013,4 hPa 0,0 l/m 9,3 km/h (2 Bft) 0,00 h 0,00 h 8,6 km/h (2 Bft)
01.11.2011 16:00 21,5 C 15,2 C 0,0 UV-I 0,0 C 53 % 77 % 0 % 1013,3 hPa 0,0 l/m 6,6 km/h (2 Bft) 0,00 h 0,00 h 7,5 km/h (2 Bft)
01.11.2011 17:00 20,9 C 14,3 C 0,0 UV-I 0,0 C 54 % 80 % 0 % 1013,1 hPa 0,0 l/m 6,6 km/h (2 Bft) 0,00 h 0,00 h 7,7 km/h (2 Bft)
01.11.2011 18:00 20,5 C 13,8 C 0,0 UV-I 0,0 C 55 % 83 % 0 % 1013,4 hPa 0,0 l/m 6,2 km/h (2 Bft) 0,00 h 0,00 h 8,0 km/h (2 Bft)
01.11.2011 19:00 20,3 C 13,4 C 0,0 UV-I 0,0 C 56 % 83 % 0 % 1013,6 hPa 0,0 l/m 8,5 km/h (2 Bft) 0,00 h 0,00 h 9,4 km/h (2 Bft)
01.11.2011 20:00 20,1 C 12,9 C 0,0 UV-I 0,0 C 56 % 85 % 0 % 1013,6 hPa 0,0 l/m 6,7 km/h (2 Bft) 0,00 h 0,13 h 7,7 km/h (2 Bft)
01.11.2011 21:00 20,0 C 12,5 C 0,0 UV-I 0,0 C 57 % 86 % 0 % 1013,9 hPa 0,6 l/m 4,7 km/h (1 Bft) 0,00 h 0,80 h 5,2 km/h (1 Bft)
01.11.2011 22:00 19,9 C 12,0 C 0,0 UV-I 0,0 C 57 % 89 % 0 % 1013,9 hPa 0,4 l/m 5,2 km/h (1 Bft) 0,00 h 0,63 h 6,5 km/h (2 Bft)
01.11.2011 23:00 19,8 C 11,8 C 0,0 UV-I 0,0 C 58 % 90 % 0 % 1013,7 hPa 0,0 l/m 6,8 km/h (2 Bft) 0,00 h 0,07 h 8,6 km/h (2 Bft)
02.11.2011 00:00 19,8 C 11,7 C 0,0 UV-I 0,0 C 58 % 91 % 0 % 1013,9 hPa 0,0 l/m 6,0 km/h (2 Bft) 0,00 h 0,00 h 6,3 km/h (2 Bft)
02.11.2011 01:00 19,5 C 11,8 C 0,0 UV-I 0,0 C 59 % 91 % 0 % 1014,2 hPa 0,1 l/m 0,7 km/h (0 Bft) 0,00 h 0,43 h 0,8 km/h (0 Bft)
02.11.2011 02:00 19,5 C 12,3 C 0,0 UV-I 0,0 C 60 % 92 % 0 % 1014,5 hPa 0,1 l/m 0,3 km/h (0 Bft) 0,00 h 0,17 h 1,1 km/h (1 Bft)
02.11.2011 03:00 19,5 C 12,4 C 0,0 UV-I 0,0 C 60 % 92 % 0 % 1014,4 hPa 0,1 l/m 0,1 km/h (0 Bft) 0,00 h 0,37 h 0,4 km/h (0 Bft)
02.11.2011 04:00 19,4 C 12,2 C 0,0 UV-I 0,0 C 60 % 92 % 0 % 1014,5 hPa 0,1 l/m 0,1 km/h (0 Bft) 0,00 h 0,27 h 0,1 km/h (0 Bft)
02.11.2011 05:00 19,3 C 12,0 C 0,0 UV-I 0,0 C 61 % 92 % 0 % 1014,7 hPa 0,0 l/m 0,1 km/h (0 Bft) 0,00 h 0,00 h 0,1 km/h (0 Bft)
02.11.2011 06:00 19,2 C 11,5 C 0,0 UV-I 0,0 C 61 % 92 % 0 % 1014,7 hPa 0,0 l/m 0,1 km/h (0 Bft) 0,00 h 0,00 h 0,1 km/h (0 Bft)
02.11.2011 07:00 19,1 C 11,0 C 0,0 UV-I 0,0 C 61 % 92 % 0 % 1014,3 hPa 0,0 l/m 0,0 km/h (0 Bft) 0,00 h 0,00 h 0,0 km/h (0 Bft)
02.11.2011 08:00 19,0 C 10,6 C 0,0 UV-I 0,0 C 61 % 93 % 1 % 1014,6 hPa 0,0 l/m 0,4 km/h (0 Bft) 0,00 h 0,00 h 0,9 km/h (0 Bft)
02.11.2011 09:00 19,0 C 11,2 C 0,0 UV-I 1,9 C 61 % 93 % 51 % 1014,2 hPa 0,1 l/m 1,3 km/h (1 Bft) 0,40 h 0,03 h 1,4 km/h (1 Bft)
02.11.2011 10:00 19,0 C 11,8 C 0,0 UV-I 0,9 C 61 % 93 % 27 % 1013,7 hPa 0,0 l/m 2,9 km/h (1 Bft) 0,00 h 0,00 h 3,4 km/h (1 Bft)
02.11.2011 11:00 19,2 C 12,3 C 0,0 UV-I 0,9 C 61 % 93 % 25 % 1013,1 hPa 0,0 l/m 2,4 km/h (1 Bft) 0,00 h 0,00 h 3,3 km/h (1 Bft)
02.11.2011 12:00 19,6 C 13,4 C 0,0 UV-I 1,7 C 60 % 92 % 47 % 1012,2 hPa 0,0 l/m 5,4 km/h (1 Bft) 0,00 h 0,00 h 7,2 km/h (2 Bft)
02.11.2011 13:00 20,2 C 14,2 C 0,4 UV-I 1,5 C 59 % 89 % 43 % 1011,6 hPa 0,0 l/m 6,3 km/h (2 Bft) 0,00 h 0,00 h 7,2 km/h (2 Bft)
02.11.2011 14:00 20,5 C 14,5 C 0,4 UV-I 1,1 C 58 % 84 % 30 % 1010,9 hPa 0,0 l/m 8,6 km/h (2 Bft) 0,00 h 0,00 h 10,5 km/h (2 Bft)
02.11.2011 15:00 20,5 C 14,6 C 0,1 UV-I 0,5 C 57 % 82 % 14 % 1010,2 hPa 0,0 l/m 7,5 km/h (2 Bft) 0,00 h 0,00 h 8,6 km/h (2 Bft)
02.11.2011 16:00 20,3 C 14,2 C 0,0 UV-I 0,0 C 57 % 82 % 0 % 1009,4 hPa 0,0 l/m 6,9 km/h (2 Bft) 0,00 h 0,00 h 9,2 km/h (2 Bft)
02.11.2011 17:00 19,9 C 13,6 C 0,0 UV-I 0,0 C 58 % 82 % 0 % 1009,0 hPa 0,0 l/m 7,4 km/h (2 Bft) 0,00 h 0,00 h 7,4 km/h (2 Bft)
02.11.2011 18:00 19,6 C 13,0 C 0,0 UV-I 0,0 C 58 % 84 % 0 % 1008,7 hPa 0,0 l/m 7,9 km/h (2 Bft) 0,00 h 0,00 h 8,9 km/h (2 Bft)
02.11.2011 19:00 19,5 C 12,5 C 0,0 UV-I 0,0 C 59 % 85 % 0 % 1008,1 hPa 0,0 l/m 7,2 km/h (2 Bft) 0,00 h 0,00 h 8,0 km/h (2 Bft)
02.11.2011 20:00 19,4 C 12,4 C 0,0 UV-I 0,0 C 58 % 86 % 0 % 1007,5 hPa 0,0 l/m 8,5 km/h (2 Bft) 0,00 h 0,00 h 9,2 km/h (2 Bft)
02.11.2011 21:00 19,2 C 12,3 C 0,0 UV-I 0,0 C 58 % 86 % 0 % 1006,7 hPa 0,0 l/m 7,9 km/h (2 Bft) 0,00 h 0,00 h 8,4 km/h (2 Bft)
02.11.2011 22:00 19,2 C 12,1 C 0,0 UV-I 0,0 C 58 % 86 % 0 % 1006,2 hPa 0,0 l/m 7,5 km/h (2 Bft) 0,00 h 0,00 h 8,9 km/h (2 Bft)
02.11.2011 23:00 19,1 C 12,1 C 0,0 UV-I 0,0 C 58 % 86 % 0 % 1005,6 hPa 0,0 l/m 6,6 km/h (2 Bft) 0,00 h 0,00 h 7,1 km/h (2 Bft)
03.11.2011 00:00 19,0 C 12,1 C 0,0 UV-I 0,0 C 57 % 86 % 0 % 1005,0 hPa 0,0 l/m 7,7 km/h (2 Bft) 0,00 h 0,00 h 9,3 km/h (2 Bft)
03.11.2011 01:00 18,8 C 12,0 C 0,0 UV-I 0,0 C 57 % 86 % 0 % 1004,4 hPa 0,0 l/m 8,4 km/h (2 Bft) 0,00 h 0,00 h 9,4 km/h (2 Bft)
03.11.2011 02:00 18,8 C 12,1 C 0,0 UV-I 0,0 C 57 % 86 % 0 % 1004,2 hPa 0,0 l/m 9,1 km/h (2 Bft) 0,00 h 0,00 h 10,1 km/h (2 Bft)
03.11.2011 03:00 18,7 C 12,1 C 0,0 UV-I 0,0 C 57 % 85 % 0 % 1003,7 hPa 0,0 l/m 8,3 km/h (2 Bft) 0,00 h 0,00 h 9,3 km/h (2 Bft)
03.11.2011 04:00 18,6 C 12,2 C 0,0 UV-I 0,0 C 58 % 86 % 0 % 1003,2 hPa 0,0 l/m 7,9 km/h (2 Bft) 0,00 h 0,00 h 8,3 km/h (2 Bft)
03.11.2011 05:00 18,6 C 12,6 C 0,0 UV-I 0,0 C 57 % 84 % 0 % 1003,0 hPa 0,0 l/m 10,7 km/h (2 Bft) 0,00 h 0,00 h 10,9 km/h (2 Bft)
03.11.2011 06:00 18,5 C 12,7 C 0,0 UV-I 0,0 C 57 % 83 % 0 % 1002,7 hPa 0,0 l/m 10,4 km/h (2 Bft) 0,00 h 0,00 h 10,2 km/h (2 Bft)
03.11.2011 07:00 18,4 C 12,4 C 0,0 UV-I 0,0 C 57 % 83 % 0 % 1002,6 hPa 0,0 l/m 9,0 km/h (2 Bft) 0,00 h 0,00 h 10,0 km/h (2 Bft)
03.11.2011 08:00 18,4 C 12,4 C 0,0 UV-I 0,0 C 57 % 83 % 0 % 1002,6 hPa 0,0 l/m 7,5 km/h (2 Bft) 0,00 h 0,00 h 8,6 km/h (2 Bft)
03.11.2011 09:00 18,6 C 13,6 C 0,1 UV-I 2,2 C 57 % 81 % 63 % 1002,6 hPa 0,0 l/m 8,9 km/h (2 Bft) 0,30 h 0,00 h 12,1 km/h (2 Bft)
03.11.2011 10:00 18,9 C 15,0 C 0,5 UV-I 2,1 C 57 % 77 % 59 % 1002,6 hPa 0,0 l/m 11,1 km/h (2 Bft) 0,27 h 0,00 h 13,3 km/h (3 Bft)
03.11.2011 11:00 19,2 C 16,7 C 0,9 UV-I 2,8 C 57 % 73 % 78 % 1002,7 hPa 0,0 l/m 11,9 km/h (2 Bft) 0,50 h 0,00 h 14,4 km/h (3 Bft)
03.11.2011 12:00 19,6 C 17,7 C 0,4 UV-I 0,9 C 57 % 70 % 25 % 1002,6 hPa 0,0 l/m 9,1 km/h (2 Bft) 0,00 h 0,00 h 9,7 km/h (2 Bft)
03.11.2011 13:00 19,8 C 17,5 C 0,1 UV-I 0,0 C 57 % 72 % 1 % 1002,6 hPa 0,0 l/m 12,6 km/h (3 Bft) 0,00 h 0,20 h 15,8 km/h (3 Bft)
03.11.2011 14:00 20,0 C 16,7 C 0,1 UV-I 0,0 C 57 % 76 % 1 % 1002,7 hPa 0,0 l/m 10,9 km/h (2 Bft) 0,00 h 0,33 h 11,6 km/h (2 Bft)
03.11.2011 15:00 19,9 C 15,4 C 0,0 UV-I 0,0 C 58 % 81 % 0 % 1002,5 hPa 0,6 l/m 8,2 km/h (2 Bft) 0,00 h 1,00 h 9,1 km/h (2 Bft)
03.11.2011 16:00 19,9 C 14,7 C 0,0 UV-I 0,0 C 59 % 85 % 0 % 1002,2 hPa 0,1 l/m 7,8 km/h (2 Bft) 0,00 h 0,27 h 7,8 km/h (2 Bft)
03.11.2011 17:00 19,8 C 14,8 C 0,0 UV-I 0,0 C 59 % 85 % 0 % 1001,9 hPa 0,0 l/m 6,1 km/h (2 Bft) 0,00 h 0,07 h 6,9 km/h (2 Bft)
03.11.2011 18:00 19,8 C 15,0 C 0,0 UV-I 0,0 C 59 % 82 % 0 % 1001,8 hPa 0,0 l/m 7,8 km/h (2 Bft) 0,00 h 0,00 h 8,7 km/h (2 Bft)
03.11.2011 19:00 19,7 C 14,8 C 0,0 UV-I 0,0 C 59 % 79 % 0 % 1001,7 hPa 0,0 l/m 7,9 km/h (2 Bft) 0,00 h 0,00 h 8,1 km/h (2 Bft)
03.11.2011 20:00 19,7 C 14,7 C 0,0 UV-I 0,0 C 58 % 76 % 0 % 1001,2 hPa 0,0 l/m 8,2 km/h (2 Bft) 0,00 h 0,00 h 9,5 km/h (2 Bft)
03.11.2011 21:00 19,7 C 14,7 C 0,0 UV-I 0,0 C 58 % 75 % 0 % 1000,8 hPa 0,0 l/m 10,5 km/h (2 Bft) 0,00 h 0,00 h 11,9 km/h (2 Bft)
03.11.2011 22:00 19,7 C 14,4 C 0,0 UV-I 0,0 C 57 % 73 % 0 % 1000,7 hPa 0,0 l/m 10,9 km/h (2 Bft) 0,00 h 0,00 h 11,9 km/h (2 Bft)
03.11.2011 23:00 19,6 C 13,7 C 0,0 UV-I 0,0 C 56 % 74 % 0 % 1000,4 hPa 0,0 l/m 12,4 km/h (3 Bft) 0,00 h 0,00 h 14,0 km/h (3 Bft)
04.11.2011 00:00 19,6 C 13,5 C 0,0 UV-I 0,0 C 55 % 74 % 0 % 1000,3 hPa 0,0 l/m 13,0 km/h (3 Bft) 0,00 h 0,20 h 13,7 km/h (3 Bft)
04.11.2011 01:00 19,4 C 13,2 C 0,0 UV-I 0,0 C 56 % 74 % 0 % 999,7 hPa 0,2 l/m 10,7 km/h (2 Bft) 0,00 h 0,87 h 12,5 km/h (3 Bft)
04.11.2011 02:00 19,4 C 12,2 C 0,0 UV-I 0,0 C 56 % 78 % 0 % 999,9 hPa 1,2 l/m 9,3 km/h (2 Bft) 0,00 h 0,80 h 9,2 km/h (2 Bft)
04.11.2011 03:00 19,3 C 11,4 C 0,0 UV-I 0,0 C 56 % 82 % 0 % 999,9 hPa 0,1 l/m 10,1 km/h (2 Bft) 0,00 h 0,43 h 10,4 km/h (2 Bft)
04.11.2011 04:00 19,2 C 11,4 C 0,0 UV-I 0,0 C 55 % 81 % 0 % 999,6 hPa 0,0 l/m 12,4 km/h (3 Bft) 0,00 h 0,00 h 13,2 km/h (3 Bft)
04.11.2011 05:00 19,2 C 11,5 C 0,0 UV-I 0,0 C 54 % 80 % 0 % 999,2 hPa 0,0 l/m 12,0 km/h (2 Bft) 0,00 h 0,00 h 12,0 km/h (2 Bft)
04.11.2011 06:00 19,0 C 11,4 C 0,0 UV-I 0,0 C 54 % 81 % 0 % 998,7 hPa 0,0 l/m 12,1 km/h (2 Bft) 0,00 h 0,00 h 13,3 km/h (3 Bft)
04.11.2011 07:00 18,9 C 11,6 C 0,0 UV-I 0,0 C 54 % 80 % 0 % 999,2 hPa 0,0 l/m 12,8 km/h (3 Bft) 0,00 h 0,00 h 13,9 km/h (3 Bft)
04.11.2011 08:00 18,8 C 12,2 C 0,0 UV-I 0,0 C 54 % 80 % 0 % 1000,2 hPa 0,0 l/m 7,5 km/h (2 Bft) 0,00 h 0,00 h 7,4 km/h (2 Bft)
04.11.2011 09:00 18,9 C 13,1 C 0,1 UV-I 1,1 C 55 % 79 % 30 % 1001,3 hPa 0,0 l/m 4,1 km/h (1 Bft) 0,17 h 0,00 h 4,2 km/h (1 Bft)
04.11.2011 10:00 19,0 C 15,4 C 0,7 UV-I 5,0 C 56 % 76 % 96 % 1001,7 hPa 0,0 l/m 3,0 km/h (1 Bft) 0,87 h 0,00 h 4,1 km/h (1 Bft)
04.11.2011 11:00 19,4 C 18,4 C 1,2 UV-I 5,9 C 56 % 66 % 100 % 1001,8 hPa 0,0 l/m 5,8 km/h (2 Bft) 1,00 h 0,00 h 7,2 km/h (2 Bft)
04.11.2011 12:00 20,1 C 20,2 C 1,7 UV-I 5,7 C 54 % 56 % 100 % 1001,7 hPa 0,0 l/m 5,5 km/h (1 Bft) 1,00 h 0,00 h 6,3 km/h (2 Bft)
04.11.2011 13:00 21,3 C 21,5 C 1,4 UV-I 4,3 C 52 % 51 % 94 % 1002,3 hPa 0,0 l/m 4,4 km/h (1 Bft) 0,83 h 0,00 h 4,6 km/h (1 Bft)
04.11.2011 14:00 21,6 C 20,4 C 0,5 UV-I 0,3 C 51 % 54 % 9 % 1002,3 hPa 0,0 l/m 4,4 km/h (1 Bft) 0,00 h 0,00 h 5,4 km/h (1 Bft)
04.11.2011 15:00 21,4 C 18,7 C 0,1 UV-I 0,0 C 52 % 62 % 0 % 1002,7 hPa 0,0 l/m 5,9 km/h (2 Bft) 0,00 h 0,00 h 6,3 km/h (2 Bft)
04.11.2011 16:00 21,1 C 17,2 C 0,0 UV-I 0,0 C 53 % 66 % 0 % 1003,4 hPa 0,0 l/m 6,5 km/h (2 Bft) 0,00 h 0,00 h 7,4 km/h (2 Bft)
04.11.2011 17:00 20,8 C 15,7 C 0,0 UV-I 0,0 C 54 % 72 % 0 % 1003,5 hPa 0,2 l/m 6,3 km/h (2 Bft) 0,00 h 0,67 h 6,3 km/h (2 Bft)
04.11.2011 18:00 20,5 C 14,1 C 0,0 UV-I 0,0 C 55 % 80 % 0 % 1004,2 hPa 0,7 l/m 3,5 km/h (1 Bft) 0,00 h 1,00 h 4,1 km/h (1 Bft)
04.11.2011 19:00 20,3 C 13,3 C 0,0 UV-I 0,0 C 56 % 85 % 0 % 1004,7 hPa 0,6 l/m 4,0 km/h (1 Bft) 0,00 h 0,77 h 5,1 km/h (1 Bft)
04.11.2011 20:00 20,2 C 13,1 C 0,0 UV-I 0,0 C 57 % 87 % 0 % 1005,0 hPa 0,1 l/m 6,4 km/h (2 Bft) 0,00 h 0,17 h 7,4 km/h (2 Bft)
04.11.2011 21:00 20,1 C 13,2 C 0,0 UV-I 0,0 C 57 % 86 % 0 % 1005,4 hPa 0,0 l/m 5,9 km/h (2 Bft) 0,00 h 0,00 h 6,7 km/h (2 Bft)
04.11.2011 22:00 20,1 C 13,4 C 0,0 UV-I 0,0 C 57 % 84 % 0 % 1005,7 hPa 0,0 l/m 4,3 km/h (1 Bft) 0,00 h 0,10 h 5,2 km/h (1 Bft)
04.11.2011 23:00 20,1 C 13,2 C 0,0 UV-I 0,0 C 56 % 82 % 0 % 1005,4 hPa 0,0 l/m 2,4 km/h (1 Bft) 0,00 h 0,17 h 2,7 km/h (1 Bft)
05.11.2011 00:00 20,0 C 13,2 C 0,0 UV-I 0,0 C 57 % 82 % 0 % 1005,0 hPa 0,1 l/m 2,9 km/h (1 Bft) 0,00 h 0,20 h 3,8 km/h (1 Bft)
05.11.2011 01:00 20,0 C 12,8 C 0,0 UV-I 0,0 C 57 % 82 % 0 % 1004,9 hPa 0,0 l/m 0,1 km/h (0 Bft) 0,00 h 0,03 h 0,1 km/h (0 Bft)
05.11.2011 02:00 19,9 C 12,2 C 0,0 UV-I 0,0 C 57 % 84 % 0 % 1004,5 hPa 0,0 l/m 0,0 km/h (0 Bft) 0,00 h 0,10 h 0,0 km/h (0 Bft)
05.11.2011 03:00 19,8 C 12,0 C 0,0 UV-I 0,0 C 58 % 86 % 0 % 1003,7 hPa 0,0 l/m 0,3 km/h (0 Bft) 0,00 h 0,00 h 0,1 km/h (0 Bft)
05.11.2011 04:00 19,8 C 11,9 C 0,0 UV-I 0,0 C 58 % 85 % 0 % 1003,8 hPa 0,0 l/m 0,0 km/h (0 Bft) 0,00 h 0,00 h 0,0 km/h (0 Bft)
05.11.2011 05:00 19,6 C 11,1 C 0,0 UV-I 0,0 C 58 % 86 % 0 % 1003,6 hPa 0,0 l/m 0,0 km/h (0 Bft) 0,00 h 0,00 h 0,0 km/h (0 Bft)
05.11.2011 06:00 19,5 C 10,6 C 0,0 UV-I 0,0 C 58 % 88 % 0 % 1003,0 hPa 0,0 l/m 0,0 km/h (0 Bft) 0,00 h 0,00 h 0,1 km/h (0 Bft)
05.11.2011 07:00 19,3 C 10,0 C 0,0 UV-I 0,0 C 58 % 88 % 0 % 1003,3 hPa 0,0 l/m 0,0 km/h (0 Bft) 0,00 h 0,00 h 0,0 km/h (0 Bft)
05.11.2011 08:00 19,2 C 9,9 C 0,0 UV-I 0,0 C 58 % 90 % 0 % 1004,2 hPa 0,0 l/m 0,0 km/h (0 Bft) 0,00 h 0,00 h 0,0 km/h (0 Bft)
05.11.2011 09:00 19,2 C 11,0 C 0,0 UV-I 0,6 C 59 % 90 % 16 % 1004,9 hPa 0,0 l/m 1,8 km/h (1 Bft) 0,00 h 0,00 h 2,7 km/h (1 Bft)
05.11.2011 10:00 19,6 C 13,4 C 0,5 UV-I 2,8 C 57 % 80 % 79 % 1004,3 hPa 0,0 l/m 8,1 km/h (2 Bft) 0,57 h 0,00 h 9,8 km/h (2 Bft)
05.11.2011 11:00 19,9 C 14,5 C 0,9 UV-I 2,5 C 56 % 75 % 73 % 1004,2 hPa 0,0 l/m 9,0 km/h (2 Bft) 0,30 h 0,00 h 10,0 km/h (2 Bft)
05.11.2011 12:00 20,4 C 15,6 C 1,2 UV-I 2,9 C 55 % 71 % 83 % 1003,5 hPa 0,0 l/m 10,1 km/h (2 Bft) 0,57 h 0,00 h 11,4 km/h (2 Bft)
05.11.2011 13:00 21,2 C 16,9 C 1,2 UV-I 3,4 C 54 % 69 % 93 % 1001,5 hPa 0,0 l/m 7,1 km/h (2 Bft) 0,93 h 0,00 h 8,1 km/h (2 Bft)
05.11.2011 14:00 21,6 C 16,7 C 0,3 UV-I 1,0 C 52 % 68 % 28 % 1001,4 hPa 0,0 l/m 6,9 km/h (2 Bft) 0,07 h 0,00 h 7,4 km/h (2 Bft)
05.11.2011 15:00 21,8 C 16,6 C 0,1 UV-I 0,9 C 52 % 68 % 25 % 1001,3 hPa 0,0 l/m 4,5 km/h (1 Bft) 0,20 h 0,00 h 5,4 km/h (1 Bft)
05.11.2011 16:00 21,5 C 15,4 C 0,0 UV-I 0,0 C 52 % 72 % 0 % 1003,2 hPa 0,0 l/m 0,5 km/h (0 Bft) 0,00 h 0,00 h 0,7 km/h (0 Bft)
05.11.2011 17:00 21,0 C 13,7 C 0,0 UV-I 0,0 C 53 % 76 % 0 % 1004,7 hPa 0,0 l/m 0,0 km/h (0 Bft) 0,00 h 0,00 h 0,0 km/h (0 Bft)
05.11.2011 18:00 20,4 C 11,9 C 0,0 UV-I 0,0 C 54 % 80 % 0 % 1006,0 hPa 0,0 l/m 0,0 km/h (0 Bft) 0,00 h 0,00 h 0,0 km/h (0 Bft)
05.11.2011 19:00 20,1 C 10,8 C 0,0 UV-I 0,0 C 55 % 84 % 0 % 1007,0 hPa 0,0 l/m 0,0 km/h (0 Bft) 0,00 h 0,00 h 0,0 km/h (0 Bft)
05.11.2011 20:00 19,9 C 9,9 C 0,0 UV-I 0,0 C 55 % 86 % 0 % 1008,0 hPa 0,0 l/m 0,0 km/h (0 Bft) 0,00 h 0,00 h 0,0 km/h (0 Bft)
05.11.2011 21:00 19,7 C 9,4 C 0,0 UV-I 0,0 C 56 % 88 % 0 % 1008,8 hPa 0,0 l/m 0,0 km/h (0 Bft) 0,00 h 0,00 h 0,0 km/h (0 Bft)
05.11.2011 22:00 19,6 C 8,8 C 0,0 UV-I 0,0 C 56 % 89 % 0 % 1009,5 hPa 0,0 l/m 0,0 km/h (0 Bft) 0,00 h 0,00 h 0,0 km/h (0 Bft)
05.11.2011 23:00 19,3 C 8,3 C 0,0 UV-I 0,0 C 56 % 89 % 0 % 1010,2 hPa 0,0 l/m 0,0 km/h (0 Bft) 0,00 h 0,00 h 0,0 km/h (0 Bft)
06.11.2011 00:00 19,1 C 8,1 C 0,0 UV-I 0,0 C 56 % 90 % 0 % 1010,3 hPa 0,0 l/m 0,0 km/h (0 Bft) 0,00 h 0,00 h 0,0 km/h (0 Bft)
06.11.2011 01:00 18,9 C 8,1 C 0,0 UV-I 0,0 C 56 % 91 % 0 % 1010,4 hPa 0,0 l/m 0,0 km/h (0 Bft) 0,00 h 0,00 h 0,0 km/h (0 Bft)
06.11.2011 02:00 18,7 C 7,6 C 0,0 UV-I 0,0 C 56 % 91 % 0 % 1010,4 hPa 0,0 l/m 0,0 km/h (0 Bft) 0,00 h 0,00 h 0,0 km/h (0 Bft)
06.11.2011 03:00 18,6 C 7,4 C 0,0 UV-I 0,0 C 56 % 91 % 0 % 1010,2 hPa 0,0 l/m 0,0 km/h (0 Bft) 0,00 h 0,00 h 0,0 km/h (0 Bft)
06.11.2011 04:00 18,5 C 6,9 C 0,0 UV-I 0,0 C 56 % 92 % 0 % 1010,7 hPa 0,0 l/m 0,0 km/h (0 Bft) 0,00 h 0,00 h 0,0 km/h (0 Bft)
06.11.2011 05:00 18,4 C 6,8 C 0,0 UV-I 0,0 C 56 % 92 % 0 % 1011,2 hPa 0,0 l/m 0,0 km/h (0 Bft) 0,00 h 0,00 h 0,0 km/h (0 Bft)
06.11.2011 06:00 18,3 C 6,6 C 0,0 UV-I 0,0 C 56 % 92 % 0 % 1011,8 hPa 0,0 l/m 0,0 km/h (0 Bft) 0,00 h 0,00 h 0,0 km/h (0 Bft)
06.11.2011 07:00 18,2 C 6,3 C 0,0 UV-I 0,0 C 55 % 92 % 0 % 1012,5 hPa 0,0 l/m 0,0 km/h (0 Bft) 0,00 h 0,00 h 0,0 km/h (0 Bft)
06.11.2011 08:00 18,1 C 6,7 C 0,0 UV-I 0,1 C 55 % 93 % 3 % 1013,1 hPa 0,0 l/m 0,0 km/h (0 Bft) 0,00 h 0,00 h 0,0 km/h (0 Bft)
06.11.2011 09:00 18,2 C 8,7 C 0,0 UV-I 0,7 C 56 % 94 % 21 % 1013,6 hPa 0,0 l/m 1,5 km/h (1 Bft) 0,00 h 0,00 h 1,9 km/h (1 Bft)
06.11.2011 10:00 18,4 C 9,8 C 0,2 UV-I 1,1 C 57 % 93 % 32 % 1014,4 hPa 0,0 l/m 1,7 km/h (1 Bft) 0,00 h 0,00 h 2,6 km/h (1 Bft)
06.11.2011 11:00 18,7 C 10,9 C 0,6 UV-I 3,3 C 57 % 93 % 92 % 1015,1 hPa 0,0 l/m 5,3 km/h (1 Bft) 0,90 h 0,00 h 7,5 km/h (2 Bft)
06.11.2011 12:00 19,0 C 11,8 C 0,7 UV-I 2,2 C 56 % 90 % 62 % 1015,1 hPa 0,0 l/m 7,7 km/h (2 Bft) 0,17 h 0,00 h 8,0 km/h (2 Bft)
06.11.2011 13:00 19,5 C 12,1 C 0,5 UV-I 1,6 C 56 % 88 % 46 % 1015,3 hPa 0,0 l/m 9,0 km/h (2 Bft) 0,00 h 0,00 h 10,0 km/h (2 Bft)
06.11.2011 14:00 20,2 C 12,4 C 0,4 UV-I 1,8 C 54 % 85 % 52 % 1015,6 hPa 0,0 l/m 9,1 km/h (2 Bft) 0,00 h 0,00 h 11,4 km/h (2 Bft)
06.11.2011 15:00 20,4 C 11,7 C 0,0 UV-I 0,2 C 54 % 84 % 4 % 1016,1 hPa 0,0 l/m 8,8 km/h (2 Bft) 0,00 h 0,00 h 10,1 km/h (2 Bft)
06.11.2011 16:00 19,7 C 11,0 C 0,0 UV-I 0,0 C 55 % 86 % 0 % 1016,4 hPa 0,0 l/m 10,7 km/h (2 Bft) 0,00 h 0,00 h 11,4 km/h (2 Bft)
06.11.2011 17:00 19,1 C 10,3 C 0,0 UV-I 0,0 C 56 % 87 % 0 % 1016,7 hPa 0,0 l/m 11,1 km/h (2 Bft) 0,00 h 0,00 h 11,0 km/h (2 Bft)
06.11.2011 18:00 18,8 C 10,0 C 0,0 UV-I 0,0 C 56 % 88 % 0 % 1017,0 hPa 0,0 l/m 10,5 km/h (2 Bft) 0,00 h 0,00 h 10,6 km/h (2 Bft)
06.11.2011 19:00 18,7 C 10,1 C 0,0 UV-I 0,0 C 57 % 88 % 0 % 1017,2 hPa 0,0 l/m 7,8 km/h (2 Bft) 0,00 h 0,00 h 8,5 km/h (2 Bft)
06.11.2011 20:00 18,6 C 10,2 C 0,0 UV-I 0,0 C 57 % 89 % 0 % 1017,4 hPa 0,0 l/m 7,1 km/h (2 Bft) 0,00 h 0,00 h 7,3 km/h (2 Bft)
06.11.2011 21:00 18,6 C 9,7 C 0,0 UV-I 0,0 C 58 % 89 % 0 % 1017,7 hPa 0,0 l/m 9,6 km/h (2 Bft) 0,00 h 0,00 h 9,2 km/h (2 Bft)
06.11.2011 22:00 18,5 C 9,5 C 0,0 UV-I 0,0 C 58 % 90 % 0 % 1018,1 hPa 0,0 l/m 7,0 km/h (2 Bft) 0,00 h 0,00 h 6,7 km/h (2 Bft)
06.11.2011 23:00 18,4 C 9,6 C 0,0 UV-I 0,0 C 58 % 90 % 0 % 1018,1 hPa 0,0 l/m 7,0 km/h (2 Bft) 0,00 h 0,00 h 7,1 km/h (2 Bft)
Min-Datum _ 06.11.11 31.10.11 31.10.11 31.10.11 04.11.11 04.11.11 31.10.11 04.11.11 - 31.10.11 - - 31.10.11
_ Min-Zeit 08:26 06:16 00:00 00:00 13:44 13:58 00:00 06:06 - 00:00 - - 00:00
Minimum _ 18,0 C 6,0 C 0,0 UV-I 0,0 C 51 % 48 % 0 % 998,5 hPa - 0,0 km/h (0 Bft) - - 0,0 km/h (0 Bft)
Max-Datum _ 31.10.11 04.11.11 31.10.11 31.10.11 02.11.11 31.10.11 31.10.11 31.10.11 04.11.11 04.11.11 31.10.11 01.11.11 03.11.11
_ Max-Zeit 15:26 13:42 12:54 10:54 04:36 09:16 09:10 00:26 02:24 00:00 09:02 20:48 13:42
Maximum _ 22,4 C 21,8 C 2,1 UV-I 7,1 C 61 % 94 % 100 % 1021,8 hPa 1,2 l/m 18,1 km/h
O-SO (3 Bft)
0,03 h 0,03 h 37,7 km/h
O-SO (5 Bft)
Durchschnitt _ 19,6 C 12,4 C 0,2 UV-I 0,7 C 57 % 84 % 17 % 1009,6 hPa #6,0 l/m 5,1 km/h (1 Bft) #21:36 h #10:16 h 5,8 km/h (2 Bft)
© 2012 W. Hausmann